sensor_id;sensor_type;location;lat;lon;timestamp;temperature;humidity
47252;DHT22;32991;51.374;11.586;2023-02-13T00:01:52;6.60;99.90
47252;DHT22;32991;51.374;11.586;2023-02-13T00:04:19;6.60;99.90
47252;DHT22;32991;51.374;11.586;2023-02-13T00:06:46;6.60;99.90
47252;DHT22;32991;51.374;11.586;2023-02-13T00:09:16;6.60;99.90
47252;DHT22;32991;51.374;11.586;2023-02-13T00:11:42;6.60;99.90
47252;DHT22;32991;51.374;11.586;2023-02-13T00:14:09;6.60;99.90
47252;DHT22;32991;51.374;11.586;2023-02-13T00:16:36;6.60;99.90
47252;DHT22;32991;51.374;11.586;2023-02-13T00:19:02;6.60;99.90
47252;DHT22;32991;51.374;11.586;2023-02-13T00:21:29;6.60;99.90
47252;DHT22;32991;51.374;11.586;2023-02-13T00:23:56;6.60;99.90
47252;DHT22;32991;51.374;11.586;2023-02-13T00:26:22;6.50;99.90
47252;DHT22;32991;51.374;11.586;2023-02-13T00:28:49;6.50;99.90
47252;DHT22;32991;51.374;11.586;2023-02-13T00:31:17;6.50;99.90
47252;DHT22;32991;51.374;11.586;2023-02-13T00:33:44;6.50;99.90
47252;DHT22;32991;51.374;11.586;2023-02-13T00:36:15;6.50;99.90
47252;DHT22;32991;51.374;11.586;2023-02-13T00:38:44;6.50;99.90
47252;DHT22;32991;51.374;11.586;2023-02-13T00:41:11;6.50;99.90
47252;DHT22;32991;51.374;11.586;2023-02-13T00:43:37;6.50;99.90
47252;DHT22;32991;51.374;11.586;2023-02-13T00:46:04;6.50;99.90
47252;DHT22;32991;51.374;11.586;2023-02-13T00:48:32;6.50;99.90
47252;DHT22;32991;51.374;11.586;2023-02-13T00:50:59;6.50;99.90
47252;DHT22;32991;51.374;11.586;2023-02-13T00:53:29;6.40;99.90
47252;DHT22;32991;51.374;11.586;2023-02-13T00:55:56;6.40;99.90
47252;DHT22;32991;51.374;11.586;2023-02-13T00:58:22;6.40;99.90
47252;DHT22;32991;51.374;11.586;2023-02-13T01:00:50;6.40;99.90
47252;DHT22;32991;51.374;11.586;2023-02-13T01:03:18;6.40;99.90
47252;DHT22;32991;51.374;11.586;2023-02-13T01:05:45;6.40;99.90
47252;DHT22;32991;51.374;11.586;2023-02-13T01:08:12;6.30;99.90
47252;DHT22;32991;51.374;11.586;2023-02-13T01:10:39;6.30;99.90
47252;DHT22;32991;51.374;11.586;2023-02-13T01:13:07;6.30;99.90
47252;DHT22;32991;51.374;11.586;2023-02-13T01:15:34;6.30;99.90
47252;DHT22;32991;51.374;11.586;2023-02-13T01:18:01;6.30;99.90
47252;DHT22;32991;51.374;11.586;2023-02-13T01:20:28;6.30;99.90
47252;DHT22;32991;51.374;11.586;2023-02-13T01:22:55;6.30;99.90
47252;DHT22;32991;51.374;11.586;2023-02-13T01:25:22;6.30;99.90
47252;DHT22;32991;51.374;11.586;2023-02-13T01:27:49;6.30;99.90
47252;DHT22;32991;51.374;11.586;2023-02-13T01:30:16;6.30;99.90
47252;DHT22;32991;51.374;11.586;2023-02-13T01:32:44;6.30;99.90
47252;DHT22;32991;51.374;11.586;2023-02-13T01:35:12;6.20;99.90
47252;DHT22;32991;51.374;11.586;2023-02-13T01:37:39;6.20;99.90
47252;DHT22;32991;51.374;11.586;2023-02-13T01:40:07;6.20;99.90
47252;DHT22;32991;51.374;11.586;2023-02-13T01:42:33;6.20;99.90
47252;DHT22;32991;51.374;11.586;2023-02-13T01:45:05;6.20;99.90
47252;DHT22;32991;51.374;11.586;2023-02-13T01:47:35;6.20;99.90
47252;DHT22;32991;51.374;11.586;2023-02-13T01:50:07;6.10;99.90
47252;DHT22;32991;51.374;11.586;2023-02-13T01:52:37;6.10;99.90
47252;DHT22;32991;51.374;11.586;2023-02-13T01:55:06;6.10;99.90
47252;DHT22;32991;51.374;11.586;2023-02-13T01:57:33;6.10;99.90
47252;DHT22;32991;51.374;11.586;2023-02-13T02:00:06;6.10;99.90
47252;DHT22;32991;51.374;11.586;2023-02-13T02:02:44;6.10;99.90
47252;DHT22;32991;51.374;11.586;2023-02-13T02:05:12;6.10;99.90
47252;DHT22;32991;51.374;11.586;2023-02-13T02:07:38;6.00;99.90
47252;DHT22;32991;51.374;11.586;2023-02-13T02:10:08;6.00;99.90
47252;DHT22;32991;51.374;11.586;2023-02-13T02:12:41;6.00;99.90
47252;DHT22;32991;51.374;11.586;2023-02-13T02:15:10;6.00;99.90
47252;DHT22;32991;51.374;11.586;2023-02-13T02:17:37;6.00;99.90
47252;DHT22;32991;51.374;11.586;2023-02-13T02:20:12;6.00;99.90
47252;DHT22;32991;51.374;11.586;2023-02-13T02:25:40;6.00;99.90
47252;DHT22;32991;51.374;11.586;2023-02-13T02:31:09;6.00;99.90
47252;DHT22;32991;51.374;11.586;2023-02-13T02:36:28;5.90;99.90
47252;DHT22;32991;51.374;11.586;2023-02-13T02:41:34;5.90;99.90
47252;DHT22;32991;51.374;11.586;2023-02-13T02:46:45;5.80;99.90
47252;DHT22;32991;51.374;11.586;2023-02-13T02:49:39;5.80;99.90
47252;DHT22;32991;51.374;11.586;2023-02-13T02:52:26;5.80;99.90
47252;DHT22;32991;51.374;11.586;2023-02-13T02:54:59;5.80;99.90
47252;DHT22;32991;51.374;11.586;2023-02-13T03:01:01;5.80;99.90
47252;DHT22;32991;51.374;11.586;2023-02-13T03:03:49;5.80;99.90
47252;DHT22;32991;51.374;11.586;2023-02-13T03:06:36;5.80;99.90
47252;DHT22;32991;51.374;11.586;2023-02-13T03:09:06;5.80;99.90
47252;DHT22;32991;51.374;11.586;2023-02-13T03:11:55;5.80;99.90
47252;DHT22;32991;51.374;11.586;2023-02-13T03:14:40;5.80;99.90
47252;DHT22;32991;51.374;11.586;2023-02-13T03:17:09;5.80;99.90
47252;DHT22;32991;51.374;11.586;2023-02-13T03:25:21;5.80;99.90
47252;DHT22;32991;51.374;11.586;2023-02-13T03:34:07;5.80;99.90
47252;DHT22;32991;51.374;11.586;2023-02-13T03:39:43;5.80;99.90
47252;DHT22;32991;51.374;11.586;2023-02-13T03:42:14;5.80;99.90
47252;DHT22;32991;51.374;11.586;2023-02-13T03:45:30;5.70;99.90
47252;DHT22;32991;51.374;11.586;2023-02-13T03:47:50;5.80;99.90
47252;DHT22;32991;51.374;11.586;2023-02-13T03:50:18;5.70;99.90
47252;DHT22;32991;51.374;11.586;2023-02-13T03:52:50;5.80;99.90
47252;DHT22;32991;51.374;11.586;2023-02-13T03:55:19;5.80;99.90
47252;DHT22;32991;51.374;11.586;2023-02-13T03:58:07;5.80;99.90
47252;DHT22;32991;51.374;11.586;2023-02-13T04:00:54;5.80;99.90
47252;DHT22;32991;51.374;11.586;2023-02-13T04:03:27;5.80;99.90
47252;DHT22;32991;51.374;11.586;2023-02-13T04:05:56;5.70;99.90
47252;DHT22;32991;51.374;11.586;2023-02-13T04:08:25;5.70;99.90
47252;DHT22;32991;51.374;11.586;2023-02-13T04:10:53;5.80;99.90
47252;DHT22;32991;51.374;11.586;2023-02-13T04:13:34;5.80;99.90
47252;DHT22;32991;51.374;11.586;2023-02-13T04:16:12;5.70;99.90
47252;DHT22;32991;51.374;11.586;2023-02-13T04:18:41;5.70;99.90
47252;DHT22;32991;51.374;11.586;2023-02-13T04:21:08;5.80;99.90
47252;DHT22;32991;51.374;11.586;2023-02-13T04:23:35;5.80;99.90
47252;DHT22;32991;51.374;11.586;2023-02-13T04:26:04;5.70;99.90
47252;DHT22;32991;51.374;11.586;2023-02-13T04:28:31;5.80;99.90
47252;DHT22;32991;51.374;11.586;2023-02-13T04:30:58;5.80;99.90
47252;DHT22;32991;51.374;11.586;2023-02-13T04:33:25;5.80;99.90
47252;DHT22;32991;51.374;11.586;2023-02-13T04:35:51;5.80;99.90
47252;DHT22;32991;51.374;11.586;2023-02-13T04:38:18;5.80;99.90
47252;DHT22;32991;51.374;11.586;2023-02-13T04:40:45;5.70;99.90
47252;DHT22;32991;51.374;11.586;2023-02-13T04:43:11;5.70;99.90
47252;DHT22;32991;51.374;11.586;2023-02-13T04:45:38;5.70;99.90
47252;DHT22;32991;51.374;11.586;2023-02-13T04:48:04;5.70;99.90
47252;DHT22;32991;51.374;11.586;2023-02-13T04:50:31;5.70;99.90
47252;DHT22;32991;51.374;11.586;2023-02-13T04:52:58;5.70;99.90
47252;DHT22;32991;51.374;11.586;2023-02-13T04:55:25;5.70;99.90
47252;DHT22;32991;51.374;11.586;2023-02-13T04:57:52;5.70;99.90
47252;DHT22;32991;51.374;11.586;2023-02-13T05:00:20;5.70;99.90
47252;DHT22;32991;51.374;11.586;2023-02-13T05:02:47;5.60;99.90
47252;DHT22;32991;51.374;11.586;2023-02-13T05:05:13;5.70;99.90
47252;DHT22;32991;51.374;11.586;2023-02-13T05:07:40;5.60;99.90
47252;DHT22;32991;51.374;11.586;2023-02-13T05:10:08;5.60;99.90
47252;DHT22;32991;51.374;11.586;2023-02-13T05:12:35;5.60;99.90
47252;DHT22;32991;51.374;11.586;2023-02-13T05:15:02;5.60;99.90
47252;DHT22;32991;51.374;11.586;2023-02-13T05:17:29;5.60;99.90
47252;DHT22;32991;51.374;11.586;2023-02-13T05:19:56;5.60;99.90
47252;DHT22;32991;51.374;11.586;2023-02-13T05:22:22;5.60;99.90
47252;DHT22;32991;51.374;11.586;2023-02-13T05:25:08;5.60;99.90
47252;DHT22;32991;51.374;11.586;2023-02-13T05:27:35;5.60;99.90
47252;DHT22;32991;51.374;11.586;2023-02-13T05:30:01;5.50;99.90
47252;DHT22;32991;51.374;11.586;2023-02-13T05:32:28;5.60;99.90
47252;DHT22;32991;51.374;11.586;2023-02-13T05:34:55;5.50;99.90
47252;DHT22;32991;51.374;11.586;2023-02-13T05:37:21;5.50;99.90
47252;DHT22;32991;51.374;11.586;2023-02-13T05:39:48;5.60;99.90
47252;DHT22;32991;51.374;11.586;2023-02-13T05:42:14;5.60;99.90
47252;DHT22;32991;51.374;11.586;2023-02-13T05:44:41;5.60;99.90
47252;DHT22;32991;51.374;11.586;2023-02-13T05:47:08;5.60;99.90
47252;DHT22;32991;51.374;11.586;2023-02-13T05:49:34;5.60;99.90
47252;DHT22;32991;51.374;11.586;2023-02-13T05:52:01;5.50;99.90
47252;DHT22;32991;51.374;11.586;2023-02-13T05:54:28;5.60;99.90
47252;DHT22;32991;51.374;11.586;2023-02-13T05:56:54;5.50;99.90
47252;DHT22;32991;51.374;11.586;2023-02-13T05:59:21;5.50;99.90
47252;DHT22;32991;51.374;11.586;2023-02-13T06:01:49;5.50;99.90
47252;DHT22;32991;51.374;11.586;2023-02-13T06:04:16;5.50;99.90
47252;DHT22;32991;51.374;11.586;2023-02-13T06:06:43;5.50;99.90
47252;DHT22;32991;51.374;11.586;2023-02-13T06:09:10;5.50;99.90
47252;DHT22;32991;51.374;11.586;2023-02-13T06:11:37;5.50;99.90
47252;DHT22;32991;51.374;11.586;2023-02-13T06:14:04;5.50;99.90
47252;DHT22;32991;51.374;11.586;2023-02-13T06:16:30;5.50;99.90
47252;DHT22;32991;51.374;11.586;2023-02-13T06:18:57;5.50;99.90
47252;DHT22;32991;51.374;11.586;2023-02-13T06:21:24;5.40;99.90
47252;DHT22;32991;51.374;11.586;2023-02-13T06:23:50;5.40;99.90
47252;DHT22;32991;51.374;11.586;2023-02-13T06:26:17;5.40;99.90
47252;DHT22;32991;51.374;11.586;2023-02-13T06:28:44;5.40;99.90
47252;DHT22;32991;51.374;11.586;2023-02-13T06:31:11;5.40;99.90
47252;DHT22;32991;51.374;11.586;2023-02-13T06:33:37;5.40;99.90
47252;DHT22;32991;51.374;11.586;2023-02-13T06:36:04;5.40;99.90
47252;DHT22;32991;51.374;11.586;2023-02-13T06:38:31;5.40;99.90
47252;DHT22;32991;51.374;11.586;2023-02-13T06:40:59;5.30;99.90
47252;DHT22;32991;51.374;11.586;2023-02-13T06:43:27;5.30;99.90
47252;DHT22;32991;51.374;11.586;2023-02-13T06:45:54;5.30;99.90
47252;DHT22;32991;51.374;11.586;2023-02-13T06:48:20;5.30;99.90
47252;DHT22;32991;51.374;11.586;2023-02-13T06:50:47;5.30;99.90
47252;DHT22;32991;51.374;11.586;2023-02-13T06:53:14;5.30;99.90
47252;DHT22;32991;51.374;11.586;2023-02-13T06:55:41;5.30;99.90
47252;DHT22;32991;51.374;11.586;2023-02-13T06:58:07;5.30;99.90
47252;DHT22;32991;51.374;11.586;2023-02-13T07:00:34;5.30;99.90
47252;DHT22;32991;51.374;11.586;2023-02-13T07:03:03;5.30;99.90
47252;DHT22;32991;51.374;11.586;2023-02-13T07:05:31;5.30;99.90
47252;DHT22;32991;51.374;11.586;2023-02-13T07:07:58;5.30;99.90
47252;DHT22;32991;51.374;11.586;2023-02-13T07:10:24;5.30;99.90
47252;DHT22;32991;51.374;11.586;2023-02-13T07:12:51;5.30;99.90
47252;DHT22;32991;51.374;11.586;2023-02-13T07:15:31;5.30;99.90
47252;DHT22;32991;51.374;11.586;2023-02-13T07:17:58;5.30;99.90
47252;DHT22;32991;51.374;11.586;2023-02-13T07:20:25;5.30;99.90
47252;DHT22;32991;51.374;11.586;2023-02-13T07:22:56;5.30;99.90
47252;DHT22;32991;51.374;11.586;2023-02-13T07:25:22;5.40;99.90
47252;DHT22;32991;51.374;11.586;2023-02-13T07:27:49;5.40;99.90
47252;DHT22;32991;51.374;11.586;2023-02-13T07:30:16;5.40;99.90
47252;DHT22;32991;51.374;11.586;2023-02-13T07:32:43;5.40;99.90
47252;DHT22;32991;51.374;11.586;2023-02-13T07:35:09;5.40;99.90
47252;DHT22;32991;51.374;11.586;2023-02-13T07:37:36;5.50;99.90
47252;DHT22;32991;51.374;11.586;2023-02-13T07:40:03;5.50;99.90
47252;DHT22;32991;51.374;11.586;2023-02-13T07:42:32;5.50;99.90
47252;DHT22;32991;51.374;11.586;2023-02-13T07:44:59;5.60;99.90
47252;DHT22;32991;51.374;11.586;2023-02-13T07:47:26;5.60;99.90
47252;DHT22;32991;51.374;11.586;2023-02-13T07:49:52;5.60;99.90
47252;DHT22;32991;51.374;11.586;2023-02-13T07:52:20;5.70;99.90
47252;DHT22;32991;51.374;11.586;2023-02-13T07:54:47;5.70;99.90
47252;DHT22;32991;51.374;11.586;2023-02-13T07:57:14;5.80;99.90
47252;DHT22;32991;51.374;11.586;2023-02-13T07:59:40;5.80;99.90
47252;DHT22;32991;51.374;11.586;2023-02-13T08:02:14;5.80;99.90
47252;DHT22;32991;51.374;11.586;2023-02-13T08:04:41;5.80;99.90
47252;DHT22;32991;51.374;11.586;2023-02-13T08:07:15;5.90;99.90
47252;DHT22;32991;51.374;11.586;2023-02-13T08:09:45;5.90;99.90
47252;DHT22;32991;51.374;11.586;2023-02-13T08:12:30;5.90;99.90
47252;DHT22;32991;51.374;11.586;2023-02-13T08:14:57;5.90;99.90
47252;DHT22;32991;51.374;11.586;2023-02-13T08:17:24;5.90;99.90
47252;DHT22;32991;51.374;11.586;2023-02-13T08:19:51;5.90;99.90
47252;DHT22;32991;51.374;11.586;2023-02-13T08:22:17;6.00;99.90
47252;DHT22;32991;51.374;11.586;2023-02-13T08:24:44;6.00;99.90
47252;DHT22;32991;51.374;11.586;2023-02-13T08:27:11;6.00;99.90
47252;DHT22;32991;51.374;11.586;2023-02-13T08:29:38;6.00;99.90
47252;DHT22;32991;51.374;11.586;2023-02-13T08:32:05;6.00;99.90
47252;DHT22;32991;51.374;11.586;2023-02-13T08:34:32;5.90;99.90
47252;DHT22;32991;51.374;11.586;2023-02-13T08:37:00;6.00;99.90
47252;DHT22;32991;51.374;11.586;2023-02-13T08:39:26;6.00;99.90
47252;DHT22;32991;51.374;11.586;2023-02-13T08:41:53;6.00;99.90
47252;DHT22;32991;51.374;11.586;2023-02-13T08:44:20;6.10;99.90
47252;DHT22;32991;51.374;11.586;2023-02-13T08:46:46;6.10;99.90
47252;DHT22;32991;51.374;11.586;2023-02-13T08:49:13;6.10;99.90
47252;DHT22;32991;51.374;11.586;2023-02-13T08:51:40;6.20;99.90
47252;DHT22;32991;51.374;11.586;2023-02-13T08:54:06;6.30;99.90
47252;DHT22;32991;51.374;11.586;2023-02-13T08:56:33;6.40;99.90
47252;DHT22;32991;51.374;11.586;2023-02-13T08:59:00;6.50;99.90
47252;DHT22;32991;51.374;11.586;2023-02-13T09:01:27;6.50;99.90
47252;DHT22;32991;51.374;11.586;2023-02-13T09:03:54;6.40;99.90
47252;DHT22;32991;51.374;11.586;2023-02-13T09:06:20;6.50;99.90
47252;DHT22;32991;51.374;11.586;2023-02-13T09:08:48;6.50;99.90
47252;DHT22;32991;51.374;11.586;2023-02-13T09:11:15;6.50;99.90
47252;DHT22;32991;51.374;11.586;2023-02-13T09:13:41;6.50;99.90
47252;DHT22;32991;51.374;11.586;2023-02-13T09:16:09;6.60;99.90
47252;DHT22;32991;51.374;11.586;2023-02-13T09:18:36;6.70;99.90
47252;DHT22;32991;51.374;11.586;2023-02-13T09:21:04;6.80;99.90
47252;DHT22;32991;51.374;11.586;2023-02-13T09:23:32;6.80;99.90
47252;DHT22;32991;51.374;11.586;2023-02-13T09:26:03;6.90;99.90
47252;DHT22;32991;51.374;11.586;2023-02-13T09:28:30;7.00;99.90
47252;DHT22;32991;51.374;11.586;2023-02-13T09:30:57;7.00;99.90
47252;DHT22;32991;51.374;11.586;2023-02-13T09:33:24;7.00;99.90
47252;DHT22;32991;51.374;11.586;2023-02-13T09:35:51;7.10;99.90
47252;DHT22;32991;51.374;11.586;2023-02-13T09:38:18;7.10;99.90
47252;DHT22;32991;51.374;11.586;2023-02-13T09:40:52;7.10;99.90
47252;DHT22;32991;51.374;11.586;2023-02-13T09:43:29;7.10;99.90
47252;DHT22;32991;51.374;11.586;2023-02-13T09:45:57;7.00;99.90
47252;DHT22;32991;51.374;11.586;2023-02-13T09:48:29;7.10;99.90
47252;DHT22;32991;51.374;11.586;2023-02-13T09:50:57;7.00;99.90
47252;DHT22;32991;51.374;11.586;2023-02-13T09:53:25;7.00;99.90
47252;DHT22;32991;51.374;11.586;2023-02-13T09:56:09;7.10;99.90
47252;DHT22;32991;51.374;11.586;2023-02-13T09:58:43;7.00;99.90
47252;DHT22;32991;51.374;11.586;2023-02-13T10:01:15;7.00;99.90
47252;DHT22;32991;51.374;11.586;2023-02-13T10:03:57;7.00;99.90
47252;DHT22;32991;51.374;11.586;2023-02-13T10:06:32;7.00;99.90
47252;DHT22;32991;51.374;11.586;2023-02-13T10:09:05;7.00;99.90
47252;DHT22;32991;51.374;11.586;2023-02-13T10:16:37;7.00;99.90
47252;DHT22;32991;51.374;11.586;2023-02-13T10:19:11;7.10;99.90
47252;DHT22;32991;51.374;11.586;2023-02-13T10:21:41;7.10;99.90
47252;DHT22;32991;51.374;11.586;2023-02-13T10:24:25;7.30;99.90
47252;DHT22;32991;51.374;11.586;2023-02-13T10:26:53;7.50;99.90
47252;DHT22;32991;51.374;11.586;2023-02-13T10:29:28;7.50;99.90
47252;DHT22;32991;51.374;11.586;2023-02-13T10:32:18;7.40;99.90
47252;DHT22;32991;51.374;11.586;2023-02-13T10:34:48;7.40;99.90
47252;DHT22;32991;51.374;11.586;2023-02-13T10:37:17;7.40;99.90
47252;DHT22;32991;51.374;11.586;2023-02-13T10:39:45;7.30;99.90
47252;DHT22;32991;51.374;11.586;2023-02-13T10:42:19;7.30;99.90
47252;DHT22;32991;51.374;11.586;2023-02-13T10:45:00;7.20;99.90
47252;DHT22;32991;51.374;11.586;2023-02-13T10:47:42;7.20;99.90
47252;DHT22;32991;51.374;11.586;2023-02-13T10:50:31;7.10;99.90
47252;DHT22;32991;51.374;11.586;2023-02-13T10:53:10;7.00;99.90
47252;DHT22;32991;51.374;11.586;2023-02-13T10:55:58;7.00;99.90
47252;DHT22;32991;51.374;11.586;2023-02-13T11:01:08;6.90;99.90
47252;DHT22;32991;51.374;11.586;2023-02-13T11:03:38;6.90;99.90
47252;DHT22;32991;51.374;11.586;2023-02-13T11:06:06;6.90;99.90
47252;DHT22;32991;51.374;11.586;2023-02-13T11:08:38;6.90;99.90
47252;DHT22;32991;51.374;11.586;2023-02-13T11:11:26;7.00;99.90
47252;DHT22;32991;51.374;11.586;2023-02-13T11:14:06;7.10;99.90
47252;DHT22;32991;51.374;11.586;2023-02-13T11:16:55;7.20;99.90
47252;DHT22;32991;51.374;11.586;2023-02-13T11:19:23;7.20;99.90
47252;DHT22;32991;51.374;11.586;2023-02-13T11:21:56;7.20;99.90
47252;DHT22;32991;51.374;11.586;2023-02-13T11:24:24;7.20;99.90
47252;DHT22;32991;51.374;11.586;2023-02-13T11:26:58;7.10;99.90
47252;DHT22;32991;51.374;11.586;2023-02-13T11:29:27;7.10;99.90
47252;DHT22;32991;51.374;11.586;2023-02-13T11:32:00;7.10;99.90
47252;DHT22;32991;51.374;11.586;2023-02-13T11:34:29;7.10;99.90
47252;DHT22;32991;51.374;11.586;2023-02-13T11:39:38;7.10;99.90
47252;DHT22;32991;51.374;11.586;2023-02-13T11:45:02;7.20;99.90
47252;DHT22;32991;51.374;11.586;2023-02-13T11:49:59;7.50;99.90
47252;DHT22;32991;51.374;11.586;2023-02-13T11:52:35;7.50;99.90
47252;DHT22;32991;51.374;11.586;2023-02-13T11:55:04;7.70;99.90
47252;DHT22;32991;51.374;11.586;2023-02-13T11:57:35;7.80;99.90
47252;DHT22;32991;51.374;11.586;2023-02-13T12:00:25;8.00;99.90
47252;DHT22;32991;51.374;11.586;2023-02-13T12:02:54;8.20;99.90
47252;DHT22;32991;51.374;11.586;2023-02-13T12:05:22;8.40;99.90
47252;DHT22;32991;51.374;11.586;2023-02-13T12:07:49;8.60;99.90
47252;DHT22;32991;51.374;11.586;2023-02-13T12:12:50;8.80;99.90
47252;DHT22;32991;51.374;11.586;2023-02-13T12:15:23;8.90;99.90
47252;DHT22;32991;51.374;11.586;2023-02-13T12:17:55;8.90;99.90
47252;DHT22;32991;51.374;11.586;2023-02-13T12:20:22;9.00;99.90
47252;DHT22;32991;51.374;11.586;2023-02-13T12:25:53;9.40;99.90
47252;DHT22;32991;51.374;11.586;2023-02-13T12:28:26;9.50;99.90
47252;DHT22;32991;51.374;11.586;2023-02-13T12:31:14;9.40;99.90
47252;DHT22;32991;51.374;11.586;2023-02-13T12:36:18;9.40;99.90
47252;DHT22;32991;51.374;11.586;2023-02-13T12:38:59;9.40;99.90
47252;DHT22;32991;51.374;11.586;2023-02-13T12:51:48;9.40;99.90
47252;DHT22;32991;51.374;11.586;2023-02-13T12:54:35;9.20;99.90
47252;DHT22;32991;51.374;11.586;2023-02-13T12:59:45;8.90;99.90
47252;DHT22;32991;51.374;11.586;2023-02-13T13:04:54;8.70;99.90
47252;DHT22;32991;51.374;11.586;2023-02-13T13:21:02;8.70;99.90
47252;DHT22;32991;51.374;11.586;2023-02-13T13:23:33;8.70;99.90
47252;DHT22;32991;51.374;11.586;2023-02-13T13:26:09;8.80;99.90
47252;DHT22;32991;51.374;11.586;2023-02-13T13:28:40;8.80;99.90
47252;DHT22;32991;51.374;11.586;2023-02-13T13:31:08;8.80;99.90
47252;DHT22;32991;51.374;11.586;2023-02-13T13:33:36;8.80;99.90
47252;DHT22;32991;51.374;11.586;2023-02-13T13:36:07;8.80;99.90
47252;DHT22;32991;51.374;11.586;2023-02-13T13:38:41;8.90;99.90
47252;DHT22;32991;51.374;11.586;2023-02-13T13:46:46;8.80;99.90
47252;DHT22;32991;51.374;11.586;2023-02-13T13:49:23;8.70;99.90
47252;DHT22;32991;51.374;11.586;2023-02-13T13:51:52;8.60;99.90
47252;DHT22;32991;51.374;11.586;2023-02-13T13:54:21;8.50;99.90
47252;DHT22;32991;51.374;11.586;2023-02-13T13:59:19;8.30;99.90
47252;DHT22;32991;51.374;11.586;2023-02-13T14:01:46;8.20;99.90
47252;DHT22;32991;51.374;11.586;2023-02-13T14:07:14;8.10;99.90
47252;DHT22;32991;51.374;11.586;2023-02-13T14:09:41;8.10;99.90
47252;DHT22;32991;51.374;11.586;2023-02-13T14:14:51;8.10;99.90
47252;DHT22;32991;51.374;11.586;2023-02-13T14:20:14;7.90;99.90
47252;DHT22;32991;51.374;11.586;2023-02-13T14:22:43;7.90;99.90
47252;DHT22;32991;51.374;11.586;2023-02-13T14:25:26;8.00;99.90
47252;DHT22;32991;51.374;11.586;2023-02-13T14:27:59;8.00;99.90
47252;DHT22;32991;51.374;11.586;2023-02-13T14:30:29;7.90;99.90
47252;DHT22;32991;51.374;11.586;2023-02-13T14:32:57;7.90;99.90
47252;DHT22;32991;51.374;11.586;2023-02-13T14:35:26;7.80;99.90
47252;DHT22;32991;51.374;11.586;2023-02-13T14:37:57;7.80;99.90
47252;DHT22;32991;51.374;11.586;2023-02-13T14:40:29;7.80;99.90
47252;DHT22;32991;51.374;11.586;2023-02-13T14:42:57;7.80;99.90
47252;DHT22;32991;51.374;11.586;2023-02-13T14:45:26;7.70;99.90
47252;DHT22;32991;51.374;11.586;2023-02-13T14:47:54;7.60;99.90
47252;DHT22;32991;51.374;11.586;2023-02-13T14:50:26;7.60;99.90
47252;DHT22;32991;51.374;11.586;2023-02-13T14:52:54;7.50;99.90
47252;DHT22;32991;51.374;11.586;2023-02-13T14:55:35;7.50;99.90
47252;DHT22;32991;51.374;11.586;2023-02-13T14:58:05;7.40;99.90
47252;DHT22;32991;51.374;11.586;2023-02-13T15:03:43;7.40;99.90
47252;DHT22;32991;51.374;11.586;2023-02-13T15:05:50;7.40;99.90
47252;DHT22;32991;51.374;11.586;2023-02-13T15:08:18;7.30;99.90
47252;DHT22;32991;51.374;11.586;2023-02-13T15:10:47;7.30;99.90
47252;DHT22;32991;51.374;11.586;2023-02-13T15:13:16;7.20;99.90
47252;DHT22;32991;51.374;11.586;2023-02-13T15:15:44;7.20;99.90
47252;DHT22;32991;51.374;11.586;2023-02-13T15:18:18;7.10;99.90
47252;DHT22;32991;51.374;11.586;2023-02-13T15:20:45;7.10;99.90
47252;DHT22;32991;51.374;11.586;2023-02-13T15:23:17;7.10;99.90
47252;DHT22;32991;51.374;11.586;2023-02-13T15:25:44;7.00;99.90
47252;DHT22;32991;51.374;11.586;2023-02-13T15:28:17;7.00;99.90
47252;DHT22;32991;51.374;11.586;2023-02-13T15:30:52;6.90;99.90
47252;DHT22;32991;51.374;11.586;2023-02-13T15:33:20;6.90;99.90
47252;DHT22;32991;51.374;11.586;2023-02-13T15:36:01;6.90;99.90
47252;DHT22;32991;51.374;11.586;2023-02-13T15:38:34;6.80;99.90
47252;DHT22;32991;51.374;11.586;2023-02-13T15:41:09;6.80;99.90
47252;DHT22;32991;51.374;11.586;2023-02-13T15:43:37;6.70;99.90
47252;DHT22;32991;51.374;11.586;2023-02-13T15:46:05;6.70;99.90
47252;DHT22;32991;51.374;11.586;2023-02-13T15:48:32;6.60;99.90
47252;DHT22;32991;51.374;11.586;2023-02-13T15:51:00;6.60;99.90
47252;DHT22;32991;51.374;11.586;2023-02-13T15:53:27;6.60;99.90
47252;DHT22;32991;51.374;11.586;2023-02-13T15:56:03;6.60;99.90
47252;DHT22;32991;51.374;11.586;2023-02-13T15:58:31;6.50;99.90
47252;DHT22;32991;51.374;11.586;2023-02-13T16:01:00;6.50;99.90
47252;DHT22;32991;51.374;11.586;2023-02-13T16:03:28;6.50;99.90
47252;DHT22;32991;51.374;11.586;2023-02-13T16:05:56;6.40;99.90
47252;DHT22;32991;51.374;11.586;2023-02-13T16:08:30;6.40;99.90
47252;DHT22;32991;51.374;11.586;2023-02-13T16:16:24;6.30;99.90
47252;DHT22;32991;51.374;11.586;2023-02-13T16:18:51;6.30;99.90
47252;DHT22;32991;51.374;11.586;2023-02-13T16:21:22;6.20;99.90
47252;DHT22;32991;51.374;11.586;2023-02-13T16:23:54;6.20;99.90
47252;DHT22;32991;51.374;11.586;2023-02-13T16:26:22;6.20;99.90
47252;DHT22;32991;51.374;11.586;2023-02-13T16:28:49;6.10;99.90
47252;DHT22;32991;51.374;11.586;2023-02-13T16:31:16;6.10;99.90
47252;DHT22;32991;51.374;11.586;2023-02-13T16:33:44;6.10;99.90
47252;DHT22;32991;51.374;11.586;2023-02-13T16:38:47;6.10;99.90
47252;DHT22;32991;51.374;11.586;2023-02-13T16:43:47;6.00;99.90
47252;DHT22;32991;51.374;11.586;2023-02-13T16:59:13;6.00;99.90
47252;DHT22;32991;51.374;11.586;2023-02-13T17:01:44;6.00;99.90
47252;DHT22;32991;51.374;11.586;2023-02-13T17:04:18;6.00;99.90
47252;DHT22;32991;51.374;11.586;2023-02-13T17:06:46;6.00;99.90
47252;DHT22;32991;51.374;11.586;2023-02-13T17:09:13;6.00;99.90
47252;DHT22;32991;51.374;11.586;2023-02-13T17:11:39;6.00;99.90
47252;DHT22;32991;51.374;11.586;2023-02-13T17:14:06;6.00;99.90
47252;DHT22;32991;51.374;11.586;2023-02-13T17:16:33;5.90;99.90
47252;DHT22;32991;51.374;11.586;2023-02-13T17:19:00;5.90;99.90
47252;DHT22;32991;51.374;11.586;2023-02-13T17:21:26;5.90;99.90
47252;DHT22;32991;51.374;11.586;2023-02-13T17:23:53;5.90;99.90
47252;DHT22;32991;51.374;11.586;2023-02-13T17:26:20;5.90;99.90
47252;DHT22;32991;51.374;11.586;2023-02-13T17:28:46;5.90;99.90
47252;DHT22;32991;51.374;11.586;2023-02-13T17:31:13;5.90;99.90
47252;DHT22;32991;51.374;11.586;2023-02-13T17:33:40;5.80;99.90
47252;DHT22;32991;51.374;11.586;2023-02-13T17:36:08;5.80;99.90
47252;DHT22;32991;51.374;11.586;2023-02-13T17:38:36;5.80;99.90
47252;DHT22;32991;51.374;11.586;2023-02-13T17:41:04;5.70;99.90
47252;DHT22;32991;51.374;11.586;2023-02-13T17:43:31;5.50;99.90
47252;DHT22;32991;51.374;11.586;2023-02-13T17:45:57;5.50;99.90
47252;DHT22;32991;51.374;11.586;2023-02-13T17:48:26;5.40;99.90
47252;DHT22;32991;51.374;11.586;2023-02-13T17:50:53;5.30;99.90
47252;DHT22;32991;51.374;11.586;2023-02-13T17:53:24;5.30;99.90
47252;DHT22;32991;51.374;11.586;2023-02-13T17:55:51;5.20;99.90